CheckWX is a tool to help pilots better visualize weather data.  It is not intended as a substitute for an official pre-flight weather briefing.

01:05:49 UTC

CYZS TAF
Coral Harbour Airport
Coral Harbour, Canada
TAF CYZS 240038Z 2401/2413 07005KT P6SM FEW040 FM240300 07005KT P6SM SCT030 TEMPO 2403/2413 P6SM -SN BKN020 RMK NXT FCST BY 240700Z

Feb-24@
01:00 UTC

Feb-24 @ 01:00 UTC

Feb-24@
03:00 UTC

Feb-24 @ 03:00 UTC

TAF CYZS 240038Z 2401/2413 07005KT P6SM FEW040
Wind
  • 070° at 5 KTS
Cloud Levels
  • Few at 4,000' AGL

Feb-24@
03:00 UTC

Feb-24 @ 03:00 UTC

Feb-24@
13:00 UTC

Feb-24 @ 13:00 UTC

FM240300 07005KT P6SM SCT030

From

From Standard forecast or significant change

Wind
  • 070° at 5 KTS
Cloud Levels
  • Scattered at 3,000' AGL

Feb-24@
03:00 UTC

Feb-24 @ 03:00 UTC

Feb-24@
13:00 UTC

Feb-24 @ 13:00 UTC

TEMPO 2403/2413 P6SM -SN BKN020 RMK NXT FCST BY 240700Z

Temporary

Temporary Changes expected for less than half the time period

Conditions
Light Snow
Cloud Levels
  • Broken at 2,000' AGL